createdAt,value
2019-05-03T00:03:57.214Z,2.47
2019-05-03T00:09:05.014Z,1.92
2019-05-03T00:14:13.176Z,3.17
2019-05-03T00:26:02.507Z,3.10
2019-05-03T00:31:09.874Z,2.95
2019-05-03T00:36:24.102Z,2.72
2019-05-03T00:41:32.335Z,2.25
2019-05-03T00:46:42.143Z,2.52
2019-05-03T00:51:51.680Z,1.95
2019-05-03T00:57:36.453Z,2.77
2019-05-03T01:02:43.984Z,2.30
2019-05-03T01:07:52.617Z,3.25
2019-05-03T01:13:01.695Z,1.70
2019-05-03T01:18:12.320Z,4.10
2019-05-03T01:23:21.913Z,2.10
2019-05-03T01:28:29.915Z,1.60
2019-05-03T01:33:38.854Z,2.77
2019-05-03T01:44:33.118Z,1.55
2019-05-03T01:49:52.020Z,1.42
2019-05-03T01:55:00.298Z,1.60
2019-05-03T02:00:11.678Z,1.47
2019-05-03T02:05:38.475Z,2.33
2019-05-03T02:10:45.228Z,1.37
2019-05-03T02:15:52.718Z,2.27
2019-05-03T02:21:01.533Z,1.22
2019-05-03T02:26:07.471Z,1.37
2019-05-03T02:31:13.861Z,2.33
2019-05-03T02:36:23.036Z,1.30
2019-05-03T02:41:27.129Z,1.40
2019-05-03T02:46:48.128Z,1.75
2019-05-03T02:51:55.526Z,1.92
2019-05-03T02:57:01.243Z,1.10
2019-05-03T03:02:07.669Z,1.20
2019-05-03T03:07:15.155Z,2.50
2019-05-03T03:12:21.229Z,1.75
2019-05-03T03:17:27.421Z,1.57
2019-05-03T03:22:36.313Z,1.30
2019-05-03T03:27:42.139Z,1.32
2019-05-03T03:32:48.591Z,1.07
2019-05-03T03:37:55.972Z,2.27
2019-05-03T03:43:05.063Z,1.40
2019-05-03T03:48:09.887Z,1.10
2019-05-03T03:53:16.074Z,1.45
2019-05-03T03:58:23.196Z,0.85
2019-05-03T04:03:29.668Z,1.15
2019-05-03T04:08:36.205Z,1.25
2019-05-03T04:13:45.153Z,1.35
2019-05-03T04:18:59.028Z,1.47
2019-05-03T04:24:05.964Z,1.17
2019-05-03T04:29:12.719Z,1.00
2019-05-03T04:34:18.537Z,1.00
2019-05-03T04:39:25.591Z,1.15
2019-05-03T04:44:31.920Z,0.80
2019-05-03T04:49:38.067Z,1.22
2019-05-03T04:54:52.010Z,1.77
2019-05-03T04:59:58.148Z,1.10
2019-05-03T05:05:05.992Z,1.30
2019-05-03T05:10:15.098Z,1.70
2019-05-03T05:15:20.440Z,0.90
2019-05-03T05:20:49.098Z,1.82
2019-05-03T05:26:02.057Z,1.07
2019-05-03T05:31:07.959Z,1.22
2019-05-03T05:36:15.337Z,0.80
2019-05-03T05:41:21.948Z,1.60
2019-05-03T05:46:32.050Z,1.20
2019-05-03T05:51:37.778Z,0.90
2019-05-03T05:56:58.129Z,3.70
2019-05-03T06:02:08.197Z,2.00
2019-05-03T06:07:31.809Z,1.35
2019-05-03T06:13:02.368Z,7.83
2019-05-03T06:18:14.643Z,6.10
2019-05-03T06:23:25.734Z,4.47
2019-05-03T06:28:35.258Z,5.10
2019-05-03T06:33:41.739Z,3.20
2019-05-03T06:38:48.128Z,4.20
2019-05-03T06:43:55.217Z,8.78
2019-05-03T06:49:06.622Z,4.67
2019-05-03T06:54:09.348Z,12.63
2019-05-03T06:59:21.257Z,1.98
2019-05-03T07:04:34.740Z,3.83
2019-05-03T07:09:50.027Z,5.40
2019-05-03T07:14:56.587Z,2.92
2019-05-03T07:20:02.278Z,2.77
2019-05-03T07:25:08.268Z,3.05
2019-05-03T07:30:15.627Z,5.08
2019-05-03T07:35:21.530Z,2.52
2019-05-03T07:40:27.158Z,7.17
2019-05-03T07:45:35.395Z,2.62
2019-05-03T07:50:41.428Z,2.42
2019-05-03T07:56:05.048Z,2.10
2019-05-03T08:01:15.578Z,3.10
2019-05-03T08:06:22.058Z,1.82
2019-05-03T08:11:28.319Z,1.12
2019-05-03T08:16:35.311Z,2.65
2019-05-03T08:21:41.741Z,1.20
2019-05-03T08:26:47.997Z,1.60
2019-05-03T08:32:15.569Z,1.75
2019-05-03T08:37:28.087Z,3.92
2019-05-03T08:42:35.180Z,1.20
2019-05-03T08:47:41.819Z,3.10
2019-05-03T08:52:48.691Z,2.37
2019-05-03T08:57:55.350Z,2.20
2019-05-03T09:03:02.307Z,1.52
2019-05-03T09:08:08.749Z,0.80
2019-05-03T09:13:16.988Z,2.65
2019-05-03T09:18:25.841Z,1.10
2019-05-03T09:23:31.519Z,2.42
2019-05-03T09:28:37.641Z,2.40
2019-05-03T09:33:45.171Z,2.10
2019-05-03T09:38:50.978Z,1.87
2019-05-03T09:43:57.003Z,4.47
2019-05-03T09:49:12.627Z,2.95
2019-05-03T09:54:18.776Z,1.62
2019-05-03T09:59:25.516Z,1.20
2019-05-03T10:04:31.551Z,1.82
2019-05-03T10:09:37.279Z,2.02
2019-05-03T10:14:45.246Z,2.08
2019-05-03T10:19:54.593Z,2.25
2019-05-03T10:25:00.700Z,2.87
2019-05-03T10:30:12.522Z,9.33
2019-05-03T10:35:15.479Z,4.05
2019-05-03T10:40:28.458Z,5.55
2019-05-03T10:45:35.486Z,3.80
2019-05-03T10:50:42.430Z,11.63
2019-05-03T10:56:05.918Z,3.50
2019-05-03T11:01:12.818Z,7.78
2019-05-03T11:06:18.888Z,3.55
2019-05-03T11:11:25.927Z,2.40
2019-05-03T11:16:32.020Z,3.45
2019-05-03T11:21:38.188Z,4.62
2019-05-03T11:26:47.060Z,3.00
2019-05-03T11:32:25.470Z,1.72
2019-05-03T11:37:45.332Z,3.65
2019-05-03T11:42:52.788Z,6.03
2019-05-03T11:48:01.238Z,2.02
2019-05-03T11:53:07.050Z,3.92
2019-05-03T11:58:21.123Z,6.22
2019-05-03T12:03:37.392Z,5.00
2019-05-03T12:08:44.749Z,3.40
2019-05-03T12:14:09.197Z,6.95
2019-05-03T12:19:20.219Z,9.83
2019-05-03T12:24:26.170Z,7.78
2019-05-03T12:29:31.777Z,3.25
2019-05-03T12:34:38.159Z,8.83
2019-05-03T12:39:44.361Z,3.67
2019-05-03T12:44:50.222Z,4.75
2019-05-03T12:49:55.954Z,5.25
2019-05-03T12:55:01.750Z,7.15
2019-05-03T13:00:21.768Z,8.33
2019-05-03T13:05:28.549Z,3.52
2019-05-03T13:10:36.848Z,4.67
2019-05-03T13:15:42.548Z,4.25
2019-05-03T13:20:48.348Z,6.47
2019-05-03T13:25:54.948Z,8.40
2019-05-03T13:31:01.230Z,7.97
2019-05-03T13:36:07.298Z,3.15
2019-05-03T13:41:13.708Z,10.68
2019-05-03T13:46:19.720Z,2.08
2019-05-03T13:51:25.540Z,4.22
2019-05-03T13:56:31.438Z,12.23
2019-05-03T14:01:36.901Z,12.07
2019-05-03T14:06:44.538Z,7.80
2019-05-03T14:11:50.008Z,8.85
2019-05-03T14:16:55.698Z,14.85
2019-05-03T14:22:05.203Z,13.03
2019-05-03T14:27:11.088Z,7.60
2019-05-03T14:32:25.766Z,7.42
2019-05-03T14:37:26.228Z,9.45
2019-05-03T14:42:31.799Z,11.15
2019-05-03T14:47:38.461Z,4.85
2019-05-03T14:52:49.343Z,12.65
2019-05-03T14:58:07.288Z,12.43
2019-05-03T15:03:17.318Z,7.05
2019-05-03T15:08:25.638Z,9.25
2019-05-03T15:13:32.309Z,11.20
2019-05-03T15:18:39.047Z,18.62
2019-05-03T15:23:45.617Z,8.98
2019-05-03T15:28:51.958Z,10.60
2019-05-03T15:33:58.138Z,7.25
2019-05-03T15:39:05.009Z,8.83
2019-05-03T15:44:25.205Z,10.35
2019-05-03T15:49:31.939Z,18.20
2019-05-03T15:54:38.430Z,10.32
2019-05-03T15:59:44.567Z,9.33
2019-05-03T16:04:50.548Z,13.55
2019-05-03T16:09:57.760Z,8.78
2019-05-03T16:15:04.710Z,12.30
2019-05-03T16:20:11.338Z,10.48
2019-05-03T16:25:17.559Z,10.25
2019-05-03T16:30:48.667Z,8.40
2019-05-03T16:35:55.258Z,11.30
2019-05-03T16:41:01.669Z,9.90
2019-05-03T16:46:07.167Z,11.25
2019-05-03T16:51:15.117Z,4.92
2019-05-03T16:56:21.468Z,6.30
2019-05-03T17:01:27.507Z,3.50
2019-05-03T17:06:52.389Z,7.20
2019-05-03T17:12:17.348Z,7.12
2019-05-03T17:17:25.118Z,5.42
2019-05-03T17:22:31.858Z,9.10
2019-05-03T17:27:38.440Z,9.83
2019-05-03T17:32:46.029Z,4.67
2019-05-03T17:37:51.643Z,4.80
2019-05-03T17:43:16.068Z,2.50
2019-05-03T17:48:22.007Z,2.65
2019-05-03T17:53:54.605Z,3.75
2019-05-03T17:59:06.678Z,2.98
2019-05-03T18:04:36.960Z,1.85
2019-05-03T18:09:44.820Z,5.40
2019-05-03T18:14:50.238Z,3.62
2019-05-03T18:19:56.239Z,4.70
2019-05-03T18:25:02.038Z,3.92
2019-05-03T18:30:08.370Z,3.98
2019-05-03T18:35:15.298Z,1.65
2019-05-03T18:40:21.198Z,2.10
2019-05-03T18:45:41.618Z,3.08
2019-05-03T18:50:47.399Z,3.22
2019-05-03T18:55:52.808Z,2.25
2019-05-03T19:00:58.478Z,2.62
2019-05-03T19:06:06.148Z,2.55
2019-05-03T19:11:19.181Z,1.70
2019-05-03T19:16:41.658Z,4.97
2019-05-03T19:21:47.728Z,2.50
2019-05-03T19:26:54.367Z,2.12
2019-05-03T19:32:00.308Z,1.45
2019-05-03T19:37:09.628Z,2.08
2019-05-03T19:42:17.079Z,3.95
2019-05-03T19:47:24.984Z,3.08
2019-05-03T19:52:36.852Z,2.90
2019-05-03T19:57:47.465Z,4.00
2019-05-03T20:02:56.968Z,22.87
2019-05-03T20:08:21.739Z,10.05
2019-05-03T20:13:34.351Z,11.43
2019-05-03T20:18:36.048Z,6.65
2019-05-03T20:23:46.563Z,8.45
2019-05-03T20:28:51.448Z,6.08
2019-05-03T20:33:57.417Z,5.72
2019-05-03T20:39:05.474Z,7.65
2019-05-03T20:44:32.232Z,4.53
2019-05-03T20:49:40.709Z,4.65
2019-05-03T20:54:47.204Z,5.40
2019-05-03T20:59:55.198Z,5.08
2019-05-03T21:05:06.099Z,2.30
2019-05-03T21:10:15.449Z,7.05
2019-05-03T21:15:40.038Z,3.75
2019-05-03T21:20:57.420Z,3.05
2019-05-03T21:26:13.070Z,3.90
2019-05-03T21:31:15.671Z,3.80
2019-05-03T21:36:21.318Z,2.22
2019-05-03T21:41:27.129Z,3.50
2019-05-03T21:46:39.194Z,4.37
2019-05-03T21:51:45.045Z,3.87
2019-05-03T21:56:50.838Z,2.30
2019-05-03T22:01:56.288Z,3.42
2019-05-03T22:07:02.181Z,3.05
2019-05-03T22:12:08.199Z,2.83
2019-05-03T22:17:31.249Z,5.20
2019-05-03T22:22:49.520Z,4.10
2019-05-03T22:27:55.250Z,3.85
2019-05-03T22:33:02.359Z,2.52
2019-05-03T22:38:08.438Z,1.62
2019-05-03T22:43:14.772Z,7.30
2019-05-03T22:48:21.168Z,2.90
2019-05-03T22:53:26.498Z,1.67
2019-05-03T22:58:33.002Z,3.40
2019-05-03T23:03:45.010Z,1.62
2019-05-03T23:08:51.286Z,3.67
2019-05-03T23:14:04.961Z,1.75
2019-05-03T23:19:12.058Z,2.40
2019-05-03T23:24:18.589Z,2.15
2019-05-03T23:29:24.370Z,2.37
2019-05-03T23:34:31.030Z,1.87
2019-05-03T23:39:37.837Z,1.95
2019-05-03T23:44:45.478Z,3.37
2019-05-03T23:49:51.719Z,2.60
2019-05-03T23:54:59.560Z,2.92
